Mullingar, Ireland

11:24 PM IST on August 30, 2014 (GMT +0100)
Tyrrellspass | Change Station
CLOSE
Current Station
Personal Weather Station
Location: Tyrrellspass, CO. WESTMEATH
Elevation: 315 ft
Nearby Weather Stations

Elev 315 ft 53.39 °N, 7.38 °W | Updated 7 minutes ago

Partly Cloudy
Partly Cloudy
48.9 °F
Feels Like 49 °F
N
0.0
Wind Variable Wind from North
Gusts 0.0 mph

Today
High -- | Low -- °F
--% Chance of Precip.
Yesterday
High -- | Low -- °F
Precip. -- in
6:34 AM 8:24 PM
Waxing Crescent, 25% visible
Pressure 30.06 in
Visibility 6.2 miles
Clouds Few 1800 ft
Windchill 49 °F
Dew Point 24 °F
Humidity 37%
Rainfall 0.02 in
Snow Depth Not available.
UV 0 out of 12
Pollen Not available.
Air Quality Not available.
Flu Activity Not available.
METAR EIME 302200Z 25009KT 9999 FEW018 11/10 Q1018

More Conditions Fewer Conditions

Pressure 30.06 in
Visibility 6.2 miles
Clouds Few 1800 ft
Windchill 49 °F
Dew Point 24 °F
Humidity 37%
Rainfall 0.02 in
Snow Depth Not available.
UV 0 out of 12
Pollen Not available.
Air Quality Not available.
Flu Activity Not available.
METAR EIME 302200Z 25009KT 9999 FEW018 11/10 Q1018

More Conditions Fewer Conditions

10-Day Weather Forecast

Almanac

Astronomy

Aug. 30, 2014 Rise Set
Actual Time 6:34 AM IST 8:24 PM IST
Civil Twilight 5:57 AM IST 9:01 PM IST
Nautical Twilight 5:11 AM IST 9:47 PM IST
Astronomical Twilight 4:18 AM IST 10:39 PM IST
Moon 11:53 AM IST 10:02 PM IST
Length of Visible Light 15h 03m
Length of Day
13h 49m
Tomorrow will be 4m 7s shorter.
Waxing Crescent, 25% of the Moon is Illuminated
Today
Waxing Crescent
Sep 2
First Quarter
Sep 8
Full
Sep 15
Last Quarter
Sep 24
New

Today's Extremes

Country Highs Country Lows

Community

WunderPhotos

Upload Photos

1,748,657 photos uploaded!

WunderBlogs® & News

Nearby

Snow Depth

Not available.

Earthquake Activity

City Distance Mag. Time & Date
No recent earthquake activity has been reported nearby.
Minimum magnitude displayed is 2.5.

Coastal Water Temperatures

Place Temperature
No Stations Reporting

Nearby Weather Stations